Terminal Aerodrome Forecast
Issued by NWS Sterling, VA

Home | Current Version | Previous Version | Text Only | Print | Product List | Glossary On
Versions: 1 2 3 4 5 6 7 8 9 10 11 12 13 14 15 16 17 18 19 20 21 22 23
391
FTUS41 KLWX 180524
TAFBWI
TAF
KBWI 180524Z 1806/1912 VRB03KT P6SM SCT200
     FM181400 19007KT P6SM VCSH BKN120 WS020/21040KT
     FM182000 19011G20KT P6SM VCSH OVC070
     FM190300 20016G25KT P6SM -SHRA OVC045
     FM190700 22017G27KT P6SM -SHRA OVC020
     FM191000 26019G31KT P6SM -SHRA OVC035=

USA.gov is the U.S. government's official web portal to all federal, state and local government web resources and services.